Mars — XPC8385 — position and weather

sailwx.info

Track history (hours):
 
Tides and Currents Weather Stations Pressure Air Temp Water Temp Dewpoint Dewpoint Depression Visibility Wind Speed Wind Dir Waves Ship Positions

Mars

Last reported at 2016-Dec-10 02:23 UTC. Time now 2016-Dec-10 03:11 UTC.
Position N 55°17' E 014°48'.

Length 14 m; draft 1.7 m.

Type: Pilot. MMSI: 219001058.

Date/timePositionNaut miles runAvg speedWind from/ knotsBaromVisibWave heightAir tempDewpointWater temp
2016-Dec-10 02:23N 55°17' E 014°48'0 0.0
2016-Dec-10 01:29N 55°17' E 014°48'0 0.0
2016-Dec-09 20:11N 55°17' E 014°48'2 3.4
2016-Dec-09 19:33N 55°18' E 014°50'2 0.5
2016-Dec-09 15:28N 55°17' E 014°48'0 0.0
2016-Dec-09 14:22N 55°17' E 014°48'0 0.0
2016-Dec-09 13:28N 55°17' E 014°48'0 0.0
2016-Dec-09 12:28N 55°17' E 014°48'0 0.0
2016-Dec-09 11:28N 55°17' E 014°48'1 0.6
2016-Dec-09 09:32N 55°16' E 014°49'1 1.0
2016-Dec-09 08:20N 55°17' E 014°48'0 0.0
2016-Dec-09 07:32N 55°17' E 014°48'0 0.0
2016-Dec-09 04:32N 55°17' E 014°48'0 0.0
2016-Dec-09 03:26N 55°17' E 014°48'0 0.0
2016-Dec-08 18:32N 55°17' E 014°48'0 0.0
2016-Dec-08 14:26N 55°17' E 014°48'0 0.0
2016-Dec-08 11:26N 55°17' E 014°48'0 0.0
2016-Dec-08 08:14N 55°17' E 014°48'0 0.0
2016-Dec-08 07:33N 55°17' E 014°48'0 0.0
2016-Dec-08 06:33N 55°17' E 014°48'0 0.0
2016-Dec-08 05:34N 55°17' E 014°48'0 0.0
2016-Dec-08 04:34N 55°17' E 014°48'0 0.0
2016-Dec-08 03:14N 55°17' E 014°48'0 0.0
2016-Dec-08 02:32N 55°17' E 014°48'0 0.0
2016-Dec-08 01:26N 55°17' E 014°48'2 0.3
2016-Dec-07 16:33N 55°18' E 014°51'2 0.3
2016-Dec-07 07:21N 55°17' E 014°48'0 0.0
2016-Dec-06 22:27N 55°17' E 014°48'0 0.0
2016-Dec-06 18:05N 55°17' E 014°48'0 0.0
2016-Dec-05 20:27N 55°17' E 014°48'0 0.0
2016-Dec-05 19:09N 55°17' E 014°48'0 0.0
2016-Dec-05 18:15N 55°17' E 014°48'0 0.0
2016-Dec-05 17:33N 55°17' E 014°48'0 0.0
2016-Dec-05 15:27N 55°17' E 014°48'0 0.0
2016-Dec-05 14:29N 55°17' E 014°48'0 0.0
2016-Dec-05 13:04N 55°17' E 014°48'0 0.0
2016-Dec-05 10:10N 55°17' E 014°48'0 0.0
2016-Dec-05 09:16N 55°17' E 014°48'0 0.0
2016-Dec-05 06:28N 55°17' E 014°48'0 0.0
2016-Dec-05 05:28N 55°17' E 014°48'0 0.0
2016-Dec-05 03:22N 55°17' E 014°48'0 0.0
2016-Dec-04 20:16N 55°17' E 014°48'4 2.1
2016-Dec-04 18:34N 55°19' E 014°53'4 1.7
2016-Dec-04 16:23N 55°17' E 014°48'0 0.0
2016-Dec-04 15:17N 55°17' E 014°48'0 0.0
2016-Dec-04 14:11N 55°17' E 014°48'0 0.0
2016-Dec-04 12:29N 55°17' E 014°48'0 0.0
2016-Dec-04 11:05N 55°17' E 014°48'0 0.0
2016-Dec-04 10:29N 55°17' E 014°48'0 0.0
2016-Dec-04 09:29N 55°17' E 014°48'0 0.0
2016-Dec-04 08:29N 55°17' E 014°48'0 0.0
2016-Dec-04 07:29N 55°17' E 014°48'0 0.0
2016-Dec-04 06:23N 55°17' E 014°48'0 0.0
2016-Dec-04 05:29N 55°17' E 014°48'0 0.0
2016-Dec-04 04:29N 55°17' E 014°48'0 0.0
2016-Dec-04 03:29N 55°17' E 014°48'0 0.0
2016-Dec-04 02:29N 55°17' E 014°48'0 0.0
2016-Dec-04 01:29N 55°17' E 014°48'0 0.0
2016-Dec-04 00:29N 55°17' E 014°48'0 0.0
2016-Dec-03 23:29N 55°17' E 014°48'0 0.0
2016-Dec-03 22:29N 55°17' E 014°48'0 0.0
2016-Dec-03 21:29N 55°17' E 014°48'0 0.0
2016-Dec-03 20:29N 55°17' E 014°48'0 0.0
2016-Dec-03 19:29N 55°17' E 014°48'0 0.0
2016-Dec-03 18:29N 55°17' E 014°48'0 0.0
2016-Dec-03 17:23N 55°17' E 014°48'0 0.0
2016-Dec-03 16:29N 55°17' E 014°48'0 0.0
2016-Dec-03 15:29N 55°17' E 014°48'0 0.0
2016-Dec-03 14:29N 55°17' E 014°48'0 0.0
2016-Dec-03 13:29N 55°17' E 014°48'0 0.0
2016-Dec-03 11:23N 55°17' E 014°48'0 0.0
2016-Dec-03 10:29N 55°17' E 014°48'0 0.0
2016-Dec-03 09:30N 55°17' E 014°48'2 1.9
2016-Dec-03 08:23N 55°15' E 014°50'0 0.0
2016-Dec-03 07:22N 55°15' E 014°50'0 0.0
2016-Dec-03 05:28N 55°15' E 014°50'0 0.0
2016-Dec-03 04:28N 55°15' E 014°50'0 0.0
2016-Dec-03 03:22N 55°15' E 014°50'0 0.0
2016-Dec-03 02:10N 55°15' E 014°50'0 0.0
2016-Dec-03 01:05N 55°15' E 014°50'1 2.5
2016-Dec-03 00:33N 55°16' E 014°50'1 1.1
2016-Dec-02 23:20N 55°15' E 014°50'0 0.0
2016-Dec-02 22:33N 55°15' E 014°50'0 0.0
2016-Dec-02 21:32N 55°15' E 014°50'0 0.0
2016-Dec-02 20:32N 55°15' E 014°50'3 2.8
2016-Dec-02 19:33N 55°18' E 014°49'3 2.7
2016-Dec-02 18:32N 55°15' E 014°50'0 0.0
2016-Dec-02 16:32N 55°15' E 014°50'2 2.1
2016-Dec-02 15:33N 55°16' E 014°53'2 2.0
2016-Dec-02 14:32N 55°15' E 014°50'0 0.0
2016-Dec-02 13:14N 55°15' E 014°50'0 0.0
2016-Dec-02 12:14N 55°15' E 014°50'0 0.0
2016-Dec-02 11:32N 55°15' E 014°50'0 0.0
2016-Dec-02 10:28N 55°15' E 014°50'0 0.0
2016-Dec-02 09:28N 55°15' E 014°50'0 0.0
2016-Dec-02 08:28N 55°15' E 014°50'0 0.0
2016-Dec-02 07:22N 55°15' E 014°50'0 0.0
2016-Dec-02 06:22N 55°15' E 014°50'0 0.0
2016-Dec-02 05:28N 55°15' E 014°50'0 0.0
2016-Dec-02 04:22N 55°15' E 014°50'0 0.0
2016-Dec-02 03:22N 55°15' E 014°50'3 3.7
2016-Dec-02 02:33N 55°18' E 014°50'3 2.4
2016-Dec-02 01:21N 55°15' E 014°50'0 0.0
2016-Dec-02 00:33N 55°15' E 014°50'0 0.0
2016-Dec-01 23:27N 55°15' E 014°50'0 0.0
2016-Dec-01 22:33N 55°15' E 014°50'0 0.0
2016-Dec-01 21:33N 55°15' E 014°50'0 0.0
2016-Dec-01 20:21N 55°15' E 014°50'0 0.0
2016-Dec-01 18:33N 55°15' E 014°50'0 0.0
2016-Dec-01 17:15N 55°15' E 014°50'0 0.0
2016-Dec-01 16:33N 55°15' E 014°50'0 0.0
2016-Dec-01 14:27N 55°15' E 014°50'2 2.3
2016-Dec-01 13:32N 55°17' E 014°48'0 0.0
2016-Dec-01 12:33N 55°17' E 014°48'0 0.0
2016-Dec-01 11:32N 55°17' E 014°48'0 0.4
2016-Dec-01 10:33N 55°17' E 014°49'0 0.4
2016-Dec-01 09:32N 55°17' E 014°48'0 0.0
2016-Dec-01 08:31N 55°17' E 014°48'0 0.0
2016-Dec-01 07:31N 55°17' E 014°48'0 0.0
2016-Dec-01 06:31N 55°17' E 014°48'0 0.0
2016-Dec-01 05:31N 55°17' E 014°48'0 0.0
2016-Dec-01 04:19N 55°17' E 014°48'0 0.0
2016-Dec-01 03:31N 55°17' E 014°48'4 4.2
2016-Dec-01 02:33N 55°20' E 014°52'4 4.1
2016-Dec-01 01:33N 55°17' E 014°48'0 0.0
2016-Dec-01 00:33N 55°17' E 014°48'0 0.0
2016-Nov-30 23:33N 55°17' E 014°48'0 0.0
2016-Nov-30 22:31N 55°17' E 014°48'0 0.0
2016-Nov-30 21:31N 55°17' E 014°48'0 0.0
2016-Nov-30 20:31N 55°17' E 014°48'0 0.0
2016-Nov-30 19:25N 55°17' E 014°48'0 0.0
2016-Nov-30 18:31N 55°17' E 014°48'0 0.0
2016-Nov-30 17:31N 55°17' E 014°48'0 0.0
2016-Nov-30 16:25N 55°17' E 014°48'0 0.0
2016-Nov-30 15:31N 55°17' E 014°48'0 0.0
2016-Nov-30 14:31N 55°17' E 014°48'0 0.0
2016-Nov-30 13:31N 55°17' E 014°48'0 0.0
2016-Nov-30 12:33N 55°17' E 014°48'0 0.0
2016-Nov-30 11:33N 55°17' E 014°48'0 0.0
2016-Nov-30 10:15N 55°17' E 014°48'0 0.0
2016-Nov-30 09:33N 55°17' E 014°48'0 0.0
2016-Nov-30 08:33N 55°17' E 014°48'0 0.0
2016-Nov-30 07:33N 55°17' E 014°48'0 0.0
2016-Nov-30 06:33N 55°17' E 014°48'0 0.0
2016-Nov-30 05:33N 55°17' E 014°48'0 0.0
2016-Nov-30 04:33N 55°17' E 014°48'0 0.0
2016-Nov-30 03:33N 55°17' E 014°48'0 0.0
2016-Nov-30 02:27N 55°17' E 014°48'  
Track history (hours):
 
Tides and Currents Weather Stations Pressure Air Temp Water Temp Dewpoint Dewpoint Depression Visibility Wind Speed Wind Dir Waves Ship Positions

Mars

Last reported at 2016-Dec-10 02:23 UTC. Time now 2016-Dec-10 03:11 UTC.
Position N 55°17' E 014°48'.

Length 14 m; draft 1.7 m.

Type: Pilot. MMSI: 219001058.

Date/timePositionNaut miles runAvg speedWind from/ knotsBaromVisibWave heightAir tempDewpointWater temp
2016-Dec-10 02:23N 55°17' E 014°48'0 0.0
2016-Dec-10 01:29N 55°17' E 014°48'0 0.0
2016-Dec-09 20:11N 55°17' E 014°48'2 3.4
2016-Dec-09 19:33N 55°18' E 014°50'2 0.5
2016-Dec-09 15:28N 55°17' E 014°48'0 0.0
2016-Dec-09 14:22N 55°17' E 014°48'0 0.0
2016-Dec-09 13:28N 55°17' E 014°48'0 0.0
2016-Dec-09 12:28N 55°17' E 014°48'0 0.0
2016-Dec-09 11:28N 55°17' E 014°48'1 0.6
2016-Dec-09 09:32N 55°16' E 014°49'1 1.0
2016-Dec-09 08:20N 55°17' E 014°48'0 0.0
2016-Dec-09 07:32N 55°17' E 014°48'0 0.0
2016-Dec-09 04:32N 55°17' E 014°48'0 0.0
2016-Dec-09 03:26N 55°17' E 014°48'0 0.0
2016-Dec-08 18:32N 55°17' E 014°48'0 0.0
2016-Dec-08 14:26N 55°17' E 014°48'0 0.0
2016-Dec-08 11:26N 55°17' E 014°48'0 0.0
2016-Dec-08 08:14N 55°17' E 014°48'0 0.0
2016-Dec-08 07:33N 55°17' E 014°48'0 0.0
2016-Dec-08 06:33N 55°17' E 014°48'0 0.0
2016-Dec-08 05:34N 55°17' E 014°48'0 0.0
2016-Dec-08 04:34N 55°17' E 014°48'0 0.0
2016-Dec-08 03:14N 55°17' E 014°48'0 0.0
2016-Dec-08 02:32N 55°17' E 014°48'0 0.0
2016-Dec-08 01:26N 55°17' E 014°48'2 0.3
2016-Dec-07 16:33N 55°18' E 014°51'2 0.3
2016-Dec-07 07:21N 55°17' E 014°48'0 0.0
2016-Dec-06 22:27N 55°17' E 014°48'0 0.0
2016-Dec-06 18:05N 55°17' E 014°48'0 0.0
2016-Dec-05 20:27N 55°17' E 014°48'0 0.0
2016-Dec-05 19:09N 55°17' E 014°48'0 0.0
2016-Dec-05 18:15N 55°17' E 014°48'0 0.0
2016-Dec-05 17:33N 55°17' E 014°48'0 0.0
2016-Dec-05 15:27N 55°17' E 014°48'0 0.0
2016-Dec-05 14:29N 55°17' E 014°48'0 0.0
2016-Dec-05 13:04N 55°17' E 014°48'0 0.0
2016-Dec-05 10:10N 55°17' E 014°48'0 0.0
2016-Dec-05 09:16N 55°17' E 014°48'0 0.0
2016-Dec-05 06:28N 55°17' E 014°48'0 0.0
2016-Dec-05 05:28N 55°17' E 014°48'0 0.0
2016-Dec-05 03:22N 55°17' E 014°48'0 0.0
2016-Dec-04 20:16N 55°17' E 014°48'4 2.1
2016-Dec-04 18:34N 55°19' E 014°53'4 1.7
2016-Dec-04 16:23N 55°17' E 014°48'0 0.0
2016-Dec-04 15:17N 55°17' E 014°48'0 0.0
2016-Dec-04 14:11N 55°17' E 014°48'0 0.0
2016-Dec-04 12:29N 55°17' E 014°48'0 0.0
2016-Dec-04 11:05N 55°17' E 014°48'0 0.0
2016-Dec-04 10:29N 55°17' E 014°48'0 0.0
2016-Dec-04 09:29N 55°17' E 014°48'0 0.0
2016-Dec-04 08:29N 55°17' E 014°48'0 0.0
2016-Dec-04 07:29N 55°17' E 014°48'0 0.0
2016-Dec-04 06:23N 55°17' E 014°48'0 0.0
2016-Dec-04 05:29N 55°17' E 014°48'0 0.0
2016-Dec-04 04:29N 55°17' E 014°48'0 0.0
2016-Dec-04 03:29N 55°17' E 014°48'0 0.0
2016-Dec-04 02:29N 55°17' E 014°48'0 0.0
2016-Dec-04 01:29N 55°17' E 014°48'0 0.0
2016-Dec-04 00:29N 55°17' E 014°48'0 0.0
2016-Dec-03 23:29N 55°17' E 014°48'0 0.0
2016-Dec-03 22:29N 55°17' E 014°48'0 0.0
2016-Dec-03 21:29N 55°17' E 014°48'0 0.0
2016-Dec-03 20:29N 55°17' E 014°48'0 0.0
2016-Dec-03 19:29N 55°17' E 014°48'0 0.0
2016-Dec-03 18:29N 55°17' E 014°48'0 0.0
2016-Dec-03 17:23N 55°17' E 014°48'0 0.0
2016-Dec-03 16:29N 55°17' E 014°48'0 0.0
2016-Dec-03 15:29N 55°17' E 014°48'0 0.0
2016-Dec-03 14:29N 55°17' E 014°48'0 0.0
2016-Dec-03 13:29N 55°17' E 014°48'0 0.0
2016-Dec-03 11:23N 55°17' E 014°48'0 0.0
2016-Dec-03 10:29N 55°17' E 014°48'0 0.0
2016-Dec-03 09:30N 55°17' E 014°48'2 1.9
2016-Dec-03 08:23N 55°15' E 014°50'0 0.0
2016-Dec-03 07:22N 55°15' E 014°50'0 0.0
2016-Dec-03 05:28N 55°15' E 014°50'0 0.0
2016-Dec-03 04:28N 55°15' E 014°50'0 0.0
2016-Dec-03 03:22N 55°15' E 014°50'0 0.0
2016-Dec-03 02:10N 55°15' E 014°50'0 0.0
2016-Dec-03 01:05N 55°15' E 014°50'1 2.5
2016-Dec-03 00:33N 55°16' E 014°50'1 1.1
2016-Dec-02 23:20N 55°15' E 014°50'0 0.0
2016-Dec-02 22:33N 55°15' E 014°50'0 0.0
2016-Dec-02 21:32N 55°15' E 014°50'0 0.0
2016-Dec-02 20:32N 55°15' E 014°50'3 2.8
2016-Dec-02 19:33N 55°18' E 014°49'3 2.7
2016-Dec-02 18:32N 55°15' E 014°50'0 0.0
2016-Dec-02 16:32N 55°15' E 014°50'2 2.1
2016-Dec-02 15:33N 55°16' E 014°53'2 2.0
2016-Dec-02 14:32N 55°15' E 014°50'0 0.0
2016-Dec-02 13:14N 55°15' E 014°50'0 0.0
2016-Dec-02 12:14N 55°15' E 014°50'0 0.0
2016-Dec-02 11:32N 55°15' E 014°50'0 0.0
2016-Dec-02 10:28N 55°15' E 014°50'0 0.0
2016-Dec-02 09:28N 55°15' E 014°50'0 0.0
2016-Dec-02 08:28N 55°15' E 014°50'0 0.0
2016-Dec-02 07:22N 55°15' E 014°50'0 0.0
2016-Dec-02 06:22N 55°15' E 014°50'0 0.0
2016-Dec-02 05:28N 55°15' E 014°50'0 0.0
2016-Dec-02 04:22N 55°15' E 014°50'0 0.0
2016-Dec-02 03:22N 55°15' E 014°50'3 3.7
2016-Dec-02 02:33N 55°18' E 014°50'3 2.4
2016-Dec-02 01:21N 55°15' E 014°50'0 0.0
2016-Dec-02 00:33N 55°15' E 014°50'0 0.0
2016-Dec-01 23:27N 55°15' E 014°50'0 0.0
2016-Dec-01 22:33N 55°15' E 014°50'0 0.0
2016-Dec-01 21:33N 55°15' E 014°50'0 0.0
2016-Dec-01 20:21N 55°15' E 014°50'0 0.0
2016-Dec-01 18:33N 55°15' E 014°50'0 0.0
2016-Dec-01 17:15N 55°15' E 014°50'0 0.0
2016-Dec-01 16:33N 55°15' E 014°50'0 0.0
2016-Dec-01 14:27N 55°15' E 014°50'2 2.3
2016-Dec-01 13:32N 55°17' E 014°48'0 0.0
2016-Dec-01 12:33N 55°17' E 014°48'0 0.0
2016-Dec-01 11:32N 55°17' E 014°48'0 0.4
2016-Dec-01 10:33N 55°17' E 014°49'0 0.4
2016-Dec-01 09:32N 55°17' E 014°48'0 0.0
2016-Dec-01 08:31N 55°17' E 014°48'0 0.0
2016-Dec-01 07:31N 55°17' E 014°48'0 0.0
2016-Dec-01 06:31N 55°17' E 014°48'0 0.0
2016-Dec-01 05:31N 55°17' E 014°48'0 0.0
2016-Dec-01 04:19N 55°17' E 014°48'0 0.0
2016-Dec-01 03:31N 55°17' E 014°48'4 4.2
2016-Dec-01 02:33N 55°20' E 014°52'4 4.1
2016-Dec-01 01:33N 55°17' E 014°48'0 0.0
2016-Dec-01 00:33N 55°17' E 014°48'0 0.0
2016-Nov-30 23:33N 55°17' E 014°48'0 0.0
2016-Nov-30 22:31N 55°17' E 014°48'0 0.0
2016-Nov-30 21:31N 55°17' E 014°48'0 0.0
2016-Nov-30 20:31N 55°17' E 014°48'0 0.0
2016-Nov-30 19:25N 55°17' E 014°48'0 0.0
2016-Nov-30 18:31N 55°17' E 014°48'0 0.0
2016-Nov-30 17:31N 55°17' E 014°48'0 0.0
2016-Nov-30 16:25N 55°17' E 014°48'0 0.0
2016-Nov-30 15:31N 55°17' E 014°48'0 0.0
2016-Nov-30 14:31N 55°17' E 014°48'0 0.0
2016-Nov-30 13:31N 55°17' E 014°48'0 0.0
2016-Nov-30 12:33N 55°17' E 014°48'0 0.0
2016-Nov-30 11:33N 55°17' E 014°48'0 0.0
2016-Nov-30 10:15N 55°17' E 014°48'0 0.0
2016-Nov-30 09:33N 55°17' E 014°48'0 0.0
2016-Nov-30 08:33N 55°17' E 014°48'0 0.0
2016-Nov-30 07:33N 55°17' E 014°48'0 0.0
2016-Nov-30 06:33N 55°17' E 014°48'0 0.0
2016-Nov-30 05:33N 55°17' E 014°48'0 0.0
2016-Nov-30 04:33N 55°17' E 014°48'0 0.0
2016-Nov-30 03:33N 55°17' E 014°48'0 0.0
2016-Nov-30 02:27N 55°17' E 014°48'  

Dump ship's entire track history